Weather History for Wrangell, AK

Change the Weather History Date:

Friday, November 23, 2012

  Actual Average Record
Temperature  
Mean Temperature 38 °F -  
Max Temperature 44 °F 40 °F 53 °F (2005)
Min Temperature 33 °F 30 °F 10 °F (1985)
Degree Days  
Heating Degree Days 26    
Moisture  
Dew Point 32 °F    
Average Humidity 72    
Maximum Humidity 87    
Minimum Humidity 57    
Precipitation  
Precipitation 0.00 in - - ()
Sea Level Pressure  
Sea Level Pressure 29.58 in    
Wind  
Wind Speed 13 mph (ESE)    
Max Wind Speed 25 mph    
Max Gust Speed 34 mph    
Visibility 10 miles    
Events      
Averages and records for this station are not official NWS values.
T = Trace of Precipitation, MM = Missing Value Source: NWS Daily Summary

Daily Weather History Graph

Daily Weather History Graph

Search for Another Location

Airport:

Trip Planner

Search our weather history database for the weather conditions in past years. The results will help you decide how hot, cold, wet, or windy it might be!

Date:

Astronomy

Nov. 23, 2012 Rise Set
Actual Time 7:45 AM AKST 3:25 PM AKST
Civil Twilight 7:01 AM AKST 4:10 PM AKST
Nautical Twilight 6:13 AM AKST 4:58 PM AKST
Astronomical Twilight 5:28 AM AKST 5:43 PM AKST
Moon 1:24 PM AKST (11/23) 2:26 AM AKST (11/23)
Length of Visible Light 9h 09m
Length of Day
7h 39m
Waxing Gibbous, 81% of the Moon is Illuminated
Nov 23
Waxing Gibbous
Nov 28
Full
Dec 6
Last Quarter
Dec 12
New
Dec 19
First Quarter

Hourly Weather History & Observations

Time (AKST) Temp. Windchill Dew Point Humidity Pressure Visibility Wind Dir Wind Speed Gust Speed Precip Events Conditions
12:16 AM 33.8 °F 26.4 °F 28.4 °F 81% 29.54 in 9.0 mi North 9.2 mph - N/A   Mostly Cloudy
12:36 AM 35.6 °F 30.7 °F 28.4 °F 75% 29.54 in 10.0 mi North 5.8 mph - N/A   Mostly Cloudy
12:56 AM 35.6 °F 30.7 °F 30.2 °F 81% 29.54 in 10.0 mi ESE 5.8 mph - N/A   Overcast
1:16 AM 39.2 °F 32.0 °F 35.6 °F 87% 29.55 in 10.0 mi East 11.5 mph - N/A   Mostly Cloudy
1:36 AM 39.2 °F 33.0 °F 33.8 °F 81% 29.55 in 10.0 mi East 9.2 mph - N/A   Overcast
1:56 AM 39.2 °F 32.0 °F 35.6 °F 87% 29.55 in 10.0 mi East 11.5 mph - N/A   Overcast
2:16 AM 41.0 °F 33.5 °F 33.8 °F 76% 29.55 in 10.0 mi SE 13.8 mph 19.6 mph N/A   Mostly Cloudy
2:36 AM 41.0 °F 32.2 °F 32.0 °F 70% 29.55 in 10.0 mi SE 18.4 mph 24.2 mph N/A   Scattered Clouds
3:36 AM 41.0 °F 36.4 °F 33.8 °F 76% 29.55 in 10.0 mi SE 6.9 mph - N/A   Overcast
3:56 AM 41.0 °F 38.0 °F 33.8 °F 76% 29.56 in 10.0 mi ESE 4.6 mph - N/A   Overcast
4:16 AM 41.0 °F 33.1 °F 32.0 °F 70% 29.56 in 9.0 mi SE 15.0 mph 18.4 mph N/A   Overcast
4:36 AM 39.2 °F 32.0 °F 32.0 °F 75% 29.57 in 9.0 mi SE 11.5 mph - N/A   Overcast
4:56 AM 39.2 °F 35.0 °F 33.8 °F 81% 29.57 in 10.0 mi NE 5.8 mph - N/A   Overcast
5:16 AM 35.6 °F 30.7 °F 30.2 °F 81% 29.57 in 10.0 mi NNW 5.8 mph - N/A   Overcast
5:36 AM 35.6 °F 29.9 °F 28.4 °F 75% 29.57 in 10.0 mi NNW 6.9 mph - N/A   Mostly Cloudy
5:56 AM 35.6 °F 30.7 °F 30.2 °F 81% 29.57 in 10.0 mi North 5.8 mph - N/A   Mostly Cloudy
6:16 AM 35.6 °F 29.9 °F 28.4 °F 75% 29.57 in 10.0 mi WNW 6.9 mph - N/A   Mostly Cloudy
6:36 AM 35.6 °F 31.7 °F 30.2 °F 81% 29.56 in 10.0 mi ENE 4.6 mph - N/A   Mostly Cloudy
6:56 AM 35.6 °F 30.7 °F 28.4 °F 75% 29.57 in 10.0 mi SE 5.8 mph - N/A   Mostly Cloudy
7:16 AM 39.2 °F 31.2 °F 32.0 °F 75% 29.57 in 10.0 mi SE 13.8 mph 19.6 mph N/A   Scattered Clouds
7:36 AM 39.2 °F 32.0 °F 32.0 °F 75% 29.57 in 10.0 mi SE 11.5 mph - N/A   Mostly Cloudy
7:56 AM 41.0 °F 34.3 °F 32.0 °F 70% 29.57 in 10.0 mi ESE 11.5 mph 18.4 mph N/A   Mostly Cloudy
8:16 AM 39.2 °F 33.6 °F 33.8 °F 81% 29.58 in 10.0 mi East 8.1 mph - N/A   Mostly Cloudy
8:36 AM 39.2 °F 32.0 °F 33.8 °F 81% 29.59 in 10.0 mi SE 11.5 mph - N/A   Mostly Cloudy
8:56 AM 39.2 °F 31.2 °F 32.0 °F 75% 29.59 in 10.0 mi SE 13.8 mph 21.9 mph N/A   Mostly Cloudy
9:16 AM 39.2 °F 31.2 °F 32.0 °F 75% 29.59 in 10.0 mi SE 13.8 mph 19.6 mph N/A   Mostly Cloudy
9:36 AM 39.2 °F 30.5 °F 32.0 °F 75% 29.59 in 10.0 mi SE 16.1 mph 21.9 mph N/A   Mostly Cloudy
9:56 AM 41.0 °F 33.5 °F 32.0 °F 70% 29.59 in 10.0 mi ESE 13.8 mph 21.9 mph N/A   Overcast
10:16 AM 42.8 °F 35.4 °F 32.0 °F 66% 29.60 in 10.0 mi ESE 15.0 mph - N/A   Overcast
10:36 AM 42.8 °F 34.5 °F 30.2 °F 61% 29.59 in 10.0 mi ESE 18.4 mph 26.5 mph N/A   Overcast
10:56 AM 42.8 °F 34.8 °F 32.0 °F 66% 29.60 in 10.0 mi SE 17.3 mph - N/A   Overcast
11:16 AM 42.8 °F 35.1 °F 30.2 °F 61% 29.60 in 10.0 mi SE 16.1 mph 24.2 mph N/A   Mostly Cloudy
11:36 AM 42.8 °F 35.4 °F 30.2 °F 61% 29.60 in 10.0 mi SE 15.0 mph - N/A   Mostly Cloudy
11:56 AM 42.8 °F 34.8 °F 30.2 °F 61% 29.59 in 10.0 mi SE 17.3 mph 21.9 mph N/A   Mostly Cloudy
12:16 PM 42.8 °F 35.4 °F 30.2 °F 61% 29.60 in 10.0 mi ESE 15.0 mph 24.2 mph N/A   Mostly Cloudy
12:36 PM 42.8 °F 34.5 °F 30.2 °F 61% 29.59 in 10.0 mi SE 18.4 mph 26.5 mph N/A   Mostly Cloudy
12:56 PM 42.8 °F 35.1 °F 30.2 °F 61% 29.59 in 10.0 mi ESE 16.1 mph 24.2 mph N/A   Mostly Cloudy
1:16 PM 42.8 °F 35.1 °F 30.2 °F 61% 29.60 in 10.0 mi SE 16.1 mph - N/A   Mostly Cloudy
1:36 PM 44.6 °F 37.4 °F 30.2 °F 57% 29.60 in 10.0 mi SE 16.1 mph 20.7 mph N/A   Mostly Cloudy
1:56 PM 42.8 °F 34.3 °F 30.2 °F 61% 29.59 in 10.0 mi ESE 19.6 mph 25.3 mph N/A   Mostly Cloudy
2:16 PM 42.8 °F 35.4 °F 32.0 °F 66% 29.59 in 10.0 mi ESE 15.0 mph 25.3 mph N/A   Mostly Cloudy
2:36 PM 42.8 °F 35.4 °F 30.2 °F 61% 29.59 in 10.0 mi SE 15.0 mph 24.2 mph N/A   Mostly Cloudy
2:56 PM 42.8 °F 34.8 °F 30.2 °F 61% 29.58 in 10.0 mi SE 17.3 mph 24.2 mph N/A   Overcast
3:16 PM 42.8 °F 35.8 °F 32.0 °F 66% 29.59 in 10.0 mi ESE 13.8 mph - N/A   Overcast
3:36 PM 42.8 °F 35.1 °F 32.0 °F 66% 29.58 in 10.0 mi ESE 16.1 mph - N/A   Overcast
3:56 PM 42.8 °F 34.3 °F 30.2 °F 61% 29.58 in 10.0 mi SE 19.6 mph 28.8 mph N/A   Overcast
4:16 PM 42.8 °F 34.8 °F 32.0 °F 66% 29.57 in 10.0 mi ESE 17.3 mph 25.3 mph N/A   Overcast
4:36 PM 42.8 °F 34.8 °F 33.8 °F 70% 29.58 in 10.0 mi ESE 17.3 mph 24.2 mph N/A   Overcast
4:56 PM 42.8 °F 34.5 °F 33.8 °F 70% 29.58 in 10.0 mi ESE 18.4 mph 24.2 mph N/A   Overcast
5:16 PM 42.8 °F 35.8 °F 33.8 °F 70% 29.57 in 10.0 mi ESE 13.8 mph - N/A   Overcast
5:36 PM 42.8 °F 35.4 °F 33.8 °F 70% 29.57 in 10.0 mi ESE 15.0 mph 26.5 mph N/A   Overcast
5:56 PM 42.8 °F 34.8 °F 32.0 °F 66% 29.57 in 10.0 mi ESE 17.3 mph 25.3 mph N/A   Mostly Cloudy
6:16 PM 42.8 °F 34.8 °F 32.0 °F 66% 29.57 in 10.0 mi SE 17.3 mph 31.1 mph N/A   Mostly Cloudy
6:36 PM 41.0 °F 32.2 °F 32.0 °F 70% 29.58 in 10.0 mi SE 18.4 mph 27.6 mph N/A   Mostly Cloudy
6:56 PM 41.0 °F 32.2 °F 32.0 °F 70% 29.59 in 10.0 mi SE 18.4 mph 26.5 mph N/A   Overcast
7:16 PM 41.0 °F 31.4 °F 33.8 °F 76% 29.58 in 10.0 mi SE 21.9 mph 27.6 mph N/A   Overcast
7:36 PM 39.2 °F 29.8 °F 33.8 °F 81% 29.59 in 10.0 mi ESE 18.4 mph 27.6 mph N/A   Overcast
7:56 PM 39.2 °F 30.2 °F 33.8 °F 81% 29.59 in 10.0 mi ESE 17.3 mph 24.2 mph N/A   Overcast
8:16 PM 39.2 °F 29.6 °F 33.8 °F 81% 29.59 in 10.0 mi ESE 19.6 mph 29.9 mph N/A   Overcast
8:36 PM 39.2 °F 29.3 °F 33.8 °F 81% 29.59 in 10.0 mi ESE 20.7 mph 26.5 mph N/A   Overcast
8:56 PM 39.2 °F 29.0 °F 33.8 °F 81% 29.58 in 10.0 mi SE 21.9 mph 28.8 mph N/A   Overcast
9:16 PM 41.0 °F 32.5 °F 33.8 °F 76% 29.59 in 10.0 mi SE 17.3 mph 26.5 mph N/A   Overcast
9:36 PM 41.0 °F 31.6 °F 33.8 °F 76% 29.59 in 10.0 mi SE 20.7 mph 26.5 mph N/A   Overcast
9:56 PM 41.0 °F 31.6 °F 33.8 °F 76% 29.60 in 10.0 mi SE 20.7 mph 26.5 mph N/A   Overcast
10:16 PM 41.0 °F 32.2 °F 33.8 °F 76% 29.60 in 10.0 mi ESE 18.4 mph - N/A   Overcast
10:36 PM 41.0 °F 31.6 °F 33.8 °F 76% 29.59 in 10.0 mi ESE 20.7 mph 31.1 mph N/A   Overcast
10:56 PM 41.0 °F 31.6 °F 33.8 °F 76% 29.59 in 10.0 mi SE 20.7 mph 25.3 mph N/A   Overcast
11:16 PM 41.0 °F 31.4 °F 33.8 °F 76% 29.60 in 7.0 mi SE 21.9 mph 28.8 mph N/A   Overcast
11:36 PM 41.0 °F 31.6 °F 33.8 °F 76% 29.60 in 7.0 mi SE 20.7 mph 32.2 mph N/A   Overcast
11:56 PM 41.0 °F 30.7 °F 33.8 °F 76% 29.60 in 7.0 mi SE 25.3 mph 34.5 mph N/A   Overcast